Latest Coastal Weather Observations for Yanakie

IDV60701

Issued at 3:05 am EDT Saturday 25 October 2014 (issued every 10 minutes, with the page automatically refreshed every 10 minutes)

About coastal observations | Map of coastal stations | Coastal observations for VIC | Marine services | Other Formats
Station Details ID: 085301 Name: YANAKIE Lat: -38.81 Lon: 146.19 Height: 13.3 m
Data from the previous 72 hours. | See also: Recent months at Yanakie
Date/Time
EDT
Temp

°C
Wind Pressure Rain
since 9am
mm
Weather Cloud Vis
km
Sea
Height
m
Swell
Dir
 
Speed
knots
Gust
knots
hPa Trend Height
m
Period
s
Dir
25/03:00am 13.7 W 14 19 1015.4 - 0.0 - - - - - - -
25/02:30am 13.9 W 10 13 1015.3 - 0.0 - - - - - - -
25/02:00am 13.9 W 14 19 1015.3 - 0.0 - - - - - - -
25/01:30am 13.9 W 15 20 1015.4 - 0.0 - - - - - - -
25/01:00am 14.1 W 13 17 1015.2 - 0.0 - - - - - - -
25/12:30am 14.2 W 11 15 1015.4 - 0.0 - - - - - - -
25/12:00am 14.2 W 11 15 1015.1 - 0.0 - - - - - - -
 
Date/Time
EDT
Temp

°C
Wind Pressure Rain
since 9am
mm
Weather Cloud Vis
km
Sea
Height
m
Swell
Dir
 
Speed
knots
Gust
knots
hPa Trend Height
m
Period
s
Dir
24/11:30pm 14.2 W 7 10 1015.1 - 0.0 - - - - - - -
24/11:00pm 13.9 WNW 5 8 1014.9 - 0.0 - - - - - - -
24/10:30pm 13.3 W 6 8 1014.6 - 0.0 - - - - - - -
24/10:00pm 13.9 W 5 7 1014.5 - 0.0 - - - - - - -
24/09:30pm 14.8 WSW 9 11 1014.2 - 0.0 - - - - - - -
24/09:00pm 15.3 WSW 11 16 1014.0 - 0.0 - - - - - - -
24/08:30pm 15.8 WSW 15 21 1013.4 - 0.0 - - - - - - -
24/08:00pm 15.7 WSW 9 12 1012.7 - 0.0 - - - - - - -
24/07:30pm 16.3 WSW 7 9 1012.0 - 0.0 - - - - - - -
24/07:00pm 17.4 SW 8 11 1011.2 - 0.0 - - - - - - -
24/06:30pm 18.8 SW 11 14 1010.7 - 0.0 - - - - - - -
24/06:00pm 19.9 SW 12 15 1010.6 - 0.0 - - - - - - -
24/05:30pm 20.9 SW 10 13 1010.3 - 0.0 - - - - - - -
24/05:00pm 22.4 SW 10 15 1010.1 - 0.0 - - - - - - -
24/04:30pm 22.9 WSW 14 19 1010.1 - 0.0 - - - - - - -
24/04:00pm 23.9 WSW 11 15 1010.2 - 0.0 - - - - - - -
24/03:30pm 22.5 CALM 0 2 1010.1 - 0.0 - - - - - - -
24/03:00pm 20.6 NNE 3 5 1010.0 - 0.0 - - - - - - -
24/02:30pm 20.2 NE 4 6 1010.1 - 0.0 - - - - - - -
24/02:00pm 19.4 ENE 4 5 1010.5 - 0.0 - - - - - - -
24/01:30pm 19.6 ENE 4 7 1010.6 - 0.0 - - - - - - -
24/01:00pm 18.5 ENE 6 8 1011.0 - 0.0 - - - - - - -
24/12:30pm 17.9 ENE 7 10 1011.1 - 0.0 - - - - - - -
24/12:00pm 17.4 ENE 8 11 1011.5 - 0.0 - - - - - - -
24/11:30am 17.8 ENE 9 12 1011.9 - 0.0 - - - - - - -
24/11:00am 17.4 ENE 10 14 1012.1 - 0.0 - - - - - - -
24/10:30am 16.7 ENE 10 15 1012.3 - 0.0 - - - - - - -
24/10:00am 16.7 ENE 11 17 1012.4 - 0.0 - - - - - - -
24/09:30am 16.7 ENE 12 17 1012.5 - 0.0 - - - - - - -
24/09:00am 16.4 ENE 12 18 1012.7 - 0.2 - - - - - - -
24/08:30am 16.1 ENE 12 17 1012.9 - 0.2 - - - - - - -
24/08:00am 15.9 E 13 21 1013.2 - 0.2 - - - - - - -
24/07:30am 15.7 E 13 20 1013.3 - 0.2 - - - - - - -
24/07:00am 15.7 ENE 15 22 1013.5 - 0.2 - - - - - - -
24/06:30am 15.6 ENE 16 23 1013.5 - 0.2 - - - - - - -
24/06:00am 15.6 E 16 22 1013.6 - 0.2 - - - - - - -
24/05:30am 15.6 ENE 17 24 1013.5 - 0.2 - - - - - - -
24/05:09am 15.5 ENE 18 28 1013.3 - 0.2 - - - - - - -
24/05:00am 15.5 ENE 19 27 1013.4 - 0.2 - - - - - - -
24/04:39am 15.5 ENE 18 29 1013.4 - 0.0 - - - - - - -
24/04:30am 15.5 ENE 19 28 1013.5 - 0.0 - - - - - - -
24/04:00am 15.5 E 20 31 1013.8 - 0.0 - - - - - - -
24/03:59am 15.5 E 20 31 1013.7 - 0.0 - - - - - - -
24/03:30am 15.4 ENE 19 27 1014.1 - 0.0 - - - - - - -
24/03:00am 15.3 E 18 26 1014.8 - 0.0 - - - - - - -
24/02:31am 15.2 E 17 27 1015.3 - 0.0 - - - - - - -
24/02:30am 15.2 E 18 27 1015.3 - 0.0 - - - - - - -
24/02:00am 15.0 E 16 28 1015.7 - 0.0 - - - - - - -
24/01:30am 14.7 E 15 25 1016.3 - 0.0 - - - - - - -
24/01:05am 14.6 E 16 29 1016.8 - 0.0 - - - - - - -
24/01:00am 14.7 E 15 25 1017.0 - 0.0 - - - - - - -
24/12:30am 14.6 E 15 27 1017.3 - 0.0 - - - - - - -
24/12:13am 14.8 E 15 28 1017.5 - 0.0 - - - - - - -
24/12:00am 14.8 E 15 25 1017.6 - 0.0 - - - - - - -
 
Date/Time
EDT
Temp

°C
Wind Pressure Rain
since 9am
mm
Weather Cloud Vis
km
Sea
Height
m
Swell
Dir
 
Speed
knots
Gust
knots
hPa Trend Height
m
Period
s
Dir
23/11:35pm 14.7 E 16 26 1017.7 - 0.0 - - - - - - -
23/11:30pm 14.7 E 15 23 1017.8 - 0.0 - - - - - - -
23/11:00pm 14.6 E 15 22 1018.2 - 0.0 - - - - - - -
23/10:33pm 14.6 E 15 26 1018.5 - 0.0 - - - - - - -
23/10:30pm 14.6 E 15 24 1018.6 - 0.0 - - - - - - -
23/10:00pm 14.7 E 15 25 1019.0 - 0.0 - - - - - - -
23/09:45pm 14.7 E 16 27 1019.1 - 0.0 - - - - - - -
23/09:30pm 14.6 E 16 25 1019.3 - 0.0 - - - - - - -
23/09:00pm 14.5 E 16 26 1019.3 - 0.0 - - - - - - -
23/08:30pm 14.4 E 15 26 1019.3 - 0.0 - - - - - - -
23/08:26pm 14.4 E 15 26 1019.3 - 0.0 - - - - - - -
23/08:00pm 14.4 E 14 22 1019.4 - 0.0 - - - - - - -
23/07:30pm 14.4 E 15 24 1019.2 - 0.0 - - - - - - -
23/07:00pm 14.5 E 15 26 1019.1 - 0.0 - - - - - - -
23/06:30pm 14.7 E 15 28 1019.2 - 0.0 - - - - - - -
23/06:29pm 14.7 E 15 28 1019.1 - 0.0 - - - - - - -
23/06:00pm 14.6 E 15 25 1019.1 - 0.0 - - - - - - -
23/05:30pm 15.2 E 16 27 1019.2 - 0.0 - - - - - - -
23/05:00pm 15.4 E 15 26 1019.3 - 0.0 - - - - - - -
23/04:59pm 15.5 E 15 26 1019.3 - 0.0 - - - - - - -
23/04:30pm 15.7 E 13 24 1019.4 - 0.0 - - - - - - -
23/04:03pm 16.2 E 15 25 1019.4 - 0.0 - - - - - - -
23/04:00pm 16.3 E 16 25 1019.4 - 0.0 - - - - - - -
23/03:35pm 16.6 E 16 26 1019.5 - 0.0 - - - - - - -
23/03:30pm 16.4 E 17 24 1019.6 - 0.0 - - - - - - -
23/03:00pm 16.5 E 15 24 1019.8 - 0.0 - - - - - - -
23/02:49pm 16.6 E 15 26 1019.8 - 0.0 - - - - - - -
23/02:30pm 16.0 E 17 23 1020.1 - 0.0 - - - - - - -
23/02:00pm 16.2 E 15 25 1020.5 - 0.0 - - - - - - -
23/01:30pm 16.0 E 14 22 1020.8 - 0.0 - - - - - - -
23/01:00pm 15.8 E 12 18 1020.8 - 0.0 - - - - - - -
23/12:30pm 15.6 E 13 23 1020.9 - 0.0 - - - - - - -
23/12:00pm 15.4 E 12 20 1021.2 - 0.0 - - - - - - -
23/11:30am 15.6 E 13 21 1021.3 - 0.0 - - - - - - -
23/11:00am 15.5 E 9 17 1021.2 - 0.0 - - - - - - -
23/10:30am 15.3 E 11 17 1021.2 - 0.0 - - - - - - -
23/10:00am 15.8 E 9 15 1020.9 - 0.0 - - - - - - -
23/09:30am 15.6 ENE 7 10 1020.9 - 0.0 - - - - - - -
23/09:00am 15.4 NE 5 7 1020.5 - 0.4 - - - - - - -
23/08:30am 15.0 NNE 3 4 1020.6 - 0.4 - - - - - - -
23/08:00am 14.9 NE 2 4 1020.3 - 0.4 - - - - - - -
23/07:30am 14.7 WSW 3 3 1019.9 - 0.4 - - - - - - -
23/07:00am 14.3 SSW 3 5 1019.6 - 0.4 - - - - - - -
23/06:30am 14.2 SW 5 6 1019.1 - 0.4 - - - - - - -
23/06:00am 14.1 WSW 6 8 1018.6 - 0.4 - - - - - - -
23/05:30am 13.8 WSW 6 8 1018.3 - 0.4 - - - - - - -
23/05:00am 14.0 WSW 7 10 1017.7 - 0.4 - - - - - - -
23/04:30am 14.1 WSW 9 12 1017.4 - 0.4 - - - - - - -
23/04:00am 13.9 WSW 8 10 1017.1 - 0.4 - - - - - - -
23/03:30am 14.2 WSW 9 11 1016.7 - 0.4 - - - - - - -
23/03:00am 14.7 SW 10 13 1016.4 - 0.4 - - - - - - -
23/02:30am 14.8 WSW 7 10 1016.5 - 0.4 - - - - - - -
23/02:00am 14.8 SW 7 8 1016.9 - 0.4 - - - - - - -
23/01:30am 15.1 SSW 4 5 1017.4 - 0.4 - - - - - - -
23/01:00am 16.0 W 7 8 1017.9 - 0.4 - - - - - - -
23/12:30am 17.5 WSW 5 8 1017.4 - 0.0 - - - - - - -
23/12:00am 17.5 W 8 11 1017.2 - 0.0 - - - - - - -
 
Date/Time
EDT
Temp

°C
Wind Pressure Rain
since 9am
mm
Weather Cloud Vis
km
Sea
Height
m
Swell
Dir
 
Speed
knots
Gust
knots
hPa Trend Height
m
Period
s
Dir
22/11:30pm 17.8 E 5 8 1015.9 - 0.0 - - - - - - -
22/11:00pm 17.9 SW 8 13 1016.9 - 0.0 - - - - - - -
22/10:30pm 18.0 NNE 7 11 1015.7 - 0.0 - - - - - - -
22/10:00pm 17.6 N 5 7 1016.1 - 0.0 - - - - - - -
22/09:30pm 18.2 NNE 4 5 1015.9 - 0.0 - - - - - - -
22/09:00pm 17.8 SW 7 10 1016.9 - 0.0 - - - - - - -
22/08:30pm 18.4 SE 1 3 1015.7 - 0.0 - - - - - - -
22/08:00pm 19.4 E 2 4 1015.3 - 0.0 - - - - - - -
22/07:30pm 20.4 E 4 5 1015.2 - 0.0 - - - - - - -
22/07:00pm 20.5 E 7 10 1014.4 - 0.0 - - - - - - -
22/06:30pm 21.5 E 5 8 1015.0 - 0.0 - - - - - - -
22/06:00pm 21.6 E 4 6 1015.0 - 0.0 - - - - - - -
22/05:30pm 22.1 ENE 5 7 1015.0 - 0.0 - - - - - - -
22/05:00pm 24.1 ENE 6 9 1015.1 - 0.0 - - - - - - -
22/04:30pm 24.1 ENE 6 9 1015.1 - 0.0 - - - - - - -
22/04:00pm 25.5 ENE 5 6 1015.6 - 0.0 - - - - - - -
22/03:30pm 25.6 ENE 5 6 1015.7 - 0.0 - - - - - - -
22/03:00pm 25.3 ENE 5 6 1016.1 - 0.0 - - - - - - -
22/02:30pm 25.5 ENE 4 6 1016.5 - 0.0 - - - - - - -
22/02:00pm 24.7 ENE 4 6 1017.0 - 0.0 - - - - - - -
22/01:30pm 24.7 ENE 4 5 1017.3 - 0.0 - - - - - - -
22/01:00pm 23.6 ENE 4 5 1017.6 - 0.0 - - - - - - -
22/12:30pm 23.0 ENE 4 6 1018.0 - 0.0 - - - - - - -
22/12:00pm 22.4 NE 4 6 1018.5 - 0.0 - - - - - - -
22/11:30am 21.3 ENE 4 6 1018.8 - 0.0 - - - - - - -
22/11:00am 20.1 ENE 4 6 1019.2 - 0.0 - - - - - - -
22/10:30am 19.2 NE 3 5 1019.6 - 0.0 - - - - - - -
22/10:00am 18.1 NE 4 6 1019.8 - 0.0 - - - - - - -
22/09:30am 16.6 NE 4 6 1020.0 - 0.0 - - - - - - -
22/09:00am 15.7 NE 5 8 1019.6 - 0.0 - - - - - - -
22/08:30am 14.7 NE 5 8 1019.8 - 0.0 - - - - - - -
22/08:00am 13.9 NE 5 9 1019.9 - 0.0 - - - - - - -
22/07:30am 12.4 NNE 6 7 1019.9 - 0.0 - - - - - - -
22/07:00am 11.6 NNE 7 9 1020.0 - 0.0 - - - - - - -
22/06:30am 11.4 NNE 5 7 1020.1 - 0.0 - - - - - - -
22/06:00am 11.6 NE 5 8 1020.1 - 0.0 - - - - - - -
22/05:30am 11.5 NNE 6 9 1020.0 - 0.0 - - - - - - -
22/05:00am 12.2 NNE 6 10 1020.2 - 0.0 - - - - - - -
22/04:30am 13.4 ENE 7 10 1020.4 - 0.0 - - - - - - -
22/04:00am 13.2 ENE 8 10 1020.5 - 0.0 - - - - - - -
22/03:30am 13.6 ENE 10 14 1020.8 - 0.0 - - - - - - -

Other Formats:

Comma delimited format used in spreadsheet applications
http://www.bom.gov.au/fwo/IDV60701/IDV60701.94911.axf

JavaScript Object Notation format (JSON) in row-major order
http://www.bom.gov.au/fwo/IDV60701/IDV60701.94911.json